createdAt,value
2019-05-10T00:00:17.861Z,10.55
2019-05-10T00:03:05.561Z,14.03
2019-05-10T00:05:53.985Z,11.73
2019-05-10T00:08:41.389Z,13.15
2019-05-10T00:11:33.212Z,10.95
2019-05-10T00:14:26.916Z,13.10
2019-05-10T00:17:01.400Z,15.17
2019-05-10T00:19:31.140Z,14.13
2019-05-10T00:22:00.884Z,13.40
2019-05-10T00:24:30.627Z,13.80
2019-05-10T00:27:00.267Z,13.13
2019-05-10T00:29:30.900Z,15.93
2019-05-10T00:32:00.648Z,14.33
2019-05-10T00:34:30.373Z,15.03
2019-05-10T00:37:00.108Z,14.13
2019-05-10T00:39:29.764Z,12.47
2019-05-10T00:41:59.507Z,14.93
2019-05-10T00:44:29.177Z,13.00
2019-05-10T00:46:58.908Z,14.73
2019-05-10T00:49:28.590Z,11.63
2019-05-10T00:51:58.241Z,10.27
2019-05-10T00:54:27.960Z,13.27
2019-05-10T00:56:57.758Z,8.93
2019-05-10T00:59:27.622Z,8.95
2019-05-10T01:01:57.488Z,9.85
2019-05-10T01:04:27.124Z,9.67
2019-05-10T01:06:57.012Z,11.00
2019-05-10T01:09:26.703Z,7.47
2019-05-10T01:11:56.359Z,12.80
2019-05-10T01:14:26.976Z,8.83
2019-05-10T01:16:57.770Z,8.70
2019-05-10T01:19:27.447Z,10.00
2019-05-10T01:21:57.099Z,8.68
2019-05-10T01:24:26.820Z,10.73
2019-05-10T01:26:56.505Z,10.40
2019-05-10T01:29:27.223Z,9.45
2019-05-10T01:31:56.952Z,10.75
2019-05-10T01:34:27.593Z,10.70
2019-05-10T01:36:57.212Z,8.53
2019-05-10T01:39:26.903Z,10.23
2019-05-10T01:41:56.541Z,10.45
2019-05-10T01:44:26.162Z,9.58
2019-05-10T01:46:55.833Z,9.50
2019-05-10T01:49:26.501Z,8.23
2019-05-10T01:51:56.111Z,11.12
2019-05-10T01:54:26.725Z,10.43
2019-05-10T01:56:56.378Z,12.35
2019-05-10T01:59:26.013Z,8.70
2019-05-10T02:01:55.687Z,8.30
2019-05-10T02:04:25.462Z,12.15
2019-05-10T02:06:55.138Z,9.20
2019-05-10T02:09:24.790Z,13.97
2019-05-10T02:11:54.510Z,11.30
2019-05-10T02:14:25.197Z,8.70
2019-05-10T02:16:54.876Z,14.65
2019-05-10T02:19:24.530Z,12.30
2019-05-10T02:21:54.165Z,10.10
2019-05-10T02:24:23.834Z,9.65
2019-05-10T02:26:53.506Z,9.03
2019-05-10T02:29:24.204Z,9.23
2019-05-10T02:31:53.973Z,9.65
2019-05-10T02:34:24.780Z,9.43
2019-05-10T02:36:54.608Z,9.85
2019-05-10T02:39:24.290Z,9.87
2019-05-10T02:41:53.982Z,12.07
2019-05-10T02:44:23.999Z,9.20
2019-05-10T02:46:53.776Z,10.03
2019-05-10T02:49:23.554Z,10.23
2019-05-10T02:51:53.297Z,14.40
2019-05-10T02:54:23.022Z,8.20
2019-05-10T02:56:53.673Z,11.00
2019-05-10T02:59:23.830Z,8.43
2019-05-10T03:01:56.868Z,11.15
2019-05-10T03:04:28.301Z,9.17
2019-05-10T03:07:06.134Z,12.93
2019-05-10T03:09:35.871Z,12.33
2019-05-10T03:12:25.274Z,8.63
2019-05-10T03:14:57.006Z,10.77
2019-05-10T03:17:28.038Z,10.35
2019-05-10T03:19:59.493Z,8.65
2019-05-10T03:22:33.338Z,9.00
2019-05-10T03:25:03.018Z,12.00
2019-05-10T03:27:33.350Z,8.80
2019-05-10T03:30:03.130Z,10.03
2019-05-10T03:32:33.900Z,9.33
2019-05-10T03:35:04.048Z,9.33
2019-05-10T03:37:34.198Z,8.40
2019-05-10T03:40:06.893Z,11.00
2019-05-10T03:42:38.638Z,12.73
2019-05-10T03:45:08.736Z,12.83
2019-05-10T03:47:38.442Z,9.47
2019-05-10T03:50:09.585Z,11.05
2019-05-10T03:52:40.856Z,10.20
2019-05-10T03:55:10.651Z,9.83
2019-05-10T03:57:40.549Z,8.50
2019-05-10T04:00:10.679Z,8.97
2019-05-10T04:02:40.385Z,7.90
2019-05-10T04:05:10.573Z,10.30
2019-05-10T04:07:41.311Z,9.97
2019-05-10T04:10:12.207Z,10.13
2019-05-10T04:12:42.039Z,9.20
2019-05-10T04:15:12.004Z,8.23
2019-05-10T04:17:41.713Z,9.87
2019-05-10T04:20:11.723Z,7.80
2019-05-10T04:22:41.337Z,8.10
2019-05-10T04:25:11.734Z,9.90
2019-05-10T04:27:41.410Z,9.37
2019-05-10T04:30:11.451Z,12.07
2019-05-10T04:32:41.129Z,10.67
2019-05-10T04:35:11.022Z,9.57
2019-05-10T04:37:40.751Z,8.08
2019-05-10T04:40:10.945Z,9.43
2019-05-10T04:42:40.733Z,9.00
2019-05-10T04:45:22.228Z,9.93
2019-05-10T04:47:53.016Z,10.03
2019-05-10T04:50:22.817Z,9.87
2019-05-10T04:52:52.601Z,10.47
2019-05-10T04:55:22.288Z,9.73
2019-05-10T04:57:52.084Z,13.60
2019-05-10T05:00:21.939Z,8.53
2019-05-10T05:02:51.716Z,11.35
2019-05-10T05:05:21.486Z,11.78
2019-05-10T05:07:52.189Z,9.80
2019-05-10T05:10:21.822Z,12.03
2019-05-10T05:12:51.622Z,12.73
2019-05-10T05:15:21.349Z,12.10
2019-05-10T05:17:51.301Z,11.18
2019-05-10T05:20:21.072Z,11.73
2019-05-10T05:22:50.785Z,14.78
2019-05-10T05:25:22.193Z,13.40
2019-05-10T05:28:06.529Z,13.32
2019-05-10T05:30:23.769Z,16.32
2019-05-10T05:32:56.771Z,13.65
2019-05-10T05:35:25.427Z,15.28
2019-05-10T05:37:55.571Z,16.77
2019-05-10T05:40:25.193Z,13.10
2019-05-10T05:42:54.989Z,13.00
2019-05-10T05:45:28.305Z,16.32
2019-05-10T05:47:56.188Z,14.18
2019-05-10T05:50:25.905Z,12.75
2019-05-10T05:52:55.633Z,11.08
2019-05-10T05:55:30.688Z,13.55
2019-05-10T05:57:59.326Z,13.38
2019-05-10T06:00:28.248Z,14.58
2019-05-10T06:02:57.909Z,13.00
2019-05-10T06:05:34.285Z,13.85
2019-05-10T06:07:59.169Z,13.55
2019-05-10T06:10:28.789Z,15.18
2019-05-10T06:12:58.513Z,14.50
2019-05-10T06:15:29.249Z,18.00
2019-05-10T06:18:03.708Z,12.33
2019-05-10T06:20:31.037Z,16.85
2019-05-10T06:23:07.781Z,15.35
2019-05-10T06:25:39.429Z,16.05
2019-05-10T06:28:03.912Z,15.85
2019-05-10T06:30:33.629Z,18.60
2019-05-10T06:33:12.078Z,16.77
2019-05-10T06:35:34.860Z,18.52
2019-05-10T06:38:04.979Z,16.25
2019-05-10T06:40:43.911Z,17.57
2019-05-10T06:43:07.115Z,19.95
2019-05-10T06:45:37.509Z,19.23
2019-05-10T06:48:07.218Z,18.62
2019-05-10T06:50:37.005Z,20.00
2019-05-10T06:53:09.619Z,24.67
2019-05-10T06:55:38.000Z,22.40
2019-05-10T06:58:07.712Z,27.05
2019-05-10T07:00:37.914Z,20.90
2019-05-10T07:03:07.993Z,26.15
2019-05-10T07:05:37.794Z,25.00
2019-05-10T07:08:15.267Z,27.77
2019-05-10T07:10:39.140Z,29.15
2019-05-10T07:13:08.910Z,25.15
2019-05-10T07:15:42.177Z,29.90
2019-05-10T07:18:10.413Z,28.17
2019-05-10T07:20:43.136Z,26.02
2019-05-10T07:23:11.565Z,30.12
2019-05-10T07:25:44.016Z,26.85
2019-05-10T07:28:15.620Z,25.13
2019-05-10T07:30:44.574Z,29.05
2019-05-10T07:33:14.356Z,24.12
2019-05-10T07:35:44.125Z,22.52
2019-05-10T07:38:14.091Z,21.15
2019-05-10T07:40:43.795Z,20.25
2019-05-10T07:43:24.831Z,25.52
2019-05-10T07:45:45.007Z,23.18
2019-05-10T07:48:14.716Z,21.82
2019-05-10T07:50:49.359Z,19.62
2019-05-10T07:53:16.190Z,19.70
2019-05-10T07:55:47.838Z,21.65
2019-05-10T07:58:17.561Z,18.07
2019-05-10T08:00:47.580Z,22.10
2019-05-10T08:03:23.364Z,23.22
2019-05-10T08:05:55.116Z,14.33
2019-05-10T08:08:20.254Z,17.00
2019-05-10T08:10:50.085Z,14.00
2019-05-10T08:13:21.207Z,21.82
2019-05-10T08:15:51.565Z,18.15
2019-05-10T08:18:25.378Z,20.85
2019-05-10T08:20:57.710Z,16.35
2019-05-10T08:23:27.863Z,17.25
2019-05-10T08:25:55.597Z,16.05
2019-05-10T08:28:27.842Z,16.00
2019-05-10T08:30:58.717Z,14.87
2019-05-10T08:33:28.424Z,12.65
2019-05-10T08:36:04.959Z,10.55
2019-05-10T08:38:31.795Z,14.35
2019-05-10T08:41:02.698Z,12.37
2019-05-10T08:43:38.958Z,13.10
2019-05-10T08:46:04.810Z,18.45
2019-05-10T08:48:38.085Z,14.65
2019-05-10T08:51:07.634Z,14.03
2019-05-10T08:53:37.162Z,16.17
2019-05-10T08:56:07.662Z,17.35
2019-05-10T08:58:38.209Z,10.78
2019-05-10T09:01:20.446Z,14.00
2019-05-10T09:03:41.758Z,12.15
2019-05-10T09:06:15.886Z,9.85
2019-05-10T09:08:43.169Z,12.20
2019-05-10T09:11:13.022Z,13.50
2019-05-10T09:13:46.121Z,15.68
2019-05-10T09:16:13.981Z,12.40
2019-05-10T09:18:50.281Z,8.98
2019-05-10T09:21:15.157Z,13.13
2019-05-10T09:23:44.848Z,13.00
2019-05-10T09:26:16.415Z,14.20
2019-05-10T09:28:47.476Z,10.85
2019-05-10T09:31:24.019Z,13.38
2019-05-10T09:33:53.733Z,17.10
2019-05-10T09:36:23.127Z,16.02
2019-05-10T09:38:54.097Z,20.90
2019-05-10T09:41:27.608Z,25.62
2019-05-10T09:43:55.238Z,20.95
2019-05-10T09:46:24.869Z,15.93
2019-05-10T09:49:06.185Z,11.80
2019-05-10T09:51:30.081Z,13.20
2019-05-10T09:54:00.206Z,13.70
2019-05-10T09:56:33.056Z,18.70
2019-05-10T09:59:00.454Z,12.88
2019-05-10T10:01:30.183Z,21.10
2019-05-10T10:04:02.009Z,18.10
2019-05-10T10:06:31.174Z,14.38
2019-05-10T10:09:01.118Z,15.18
2019-05-10T10:11:32.613Z,14.65
2019-05-10T10:14:02.451Z,16.48
2019-05-10T10:16:33.135Z,16.32
2019-05-10T10:19:02.781Z,12.37
2019-05-10T10:21:35.457Z,12.78
2019-05-10T10:24:12.673Z,10.13
2019-05-10T10:26:37.934Z,13.48
2019-05-10T10:29:07.785Z,13.22
2019-05-10T10:31:50.049Z,11.25
2019-05-10T10:34:08.746Z,10.23
2019-05-10T10:36:42.795Z,10.03
2019-05-10T10:39:09.821Z,12.45
2019-05-10T10:41:39.446Z,12.03
2019-05-10T10:44:09.262Z,14.10
2019-05-10T10:46:38.911Z,10.70
2019-05-10T10:49:10.539Z,14.05
2019-05-10T10:51:40.022Z,14.03
2019-05-10T10:54:09.755Z,13.85
2019-05-10T10:56:39.440Z,17.12
2019-05-10T10:59:09.056Z,14.20
2019-05-10T11:01:49.556Z,15.95
2019-05-10T11:04:10.086Z,17.85
2019-05-10T11:06:39.745Z,12.75
2019-05-10T11:09:09.634Z,9.93
2019-05-10T11:11:44.301Z,15.00
2019-05-10T11:14:11.170Z,17.00
2019-05-10T11:16:41.409Z,16.57
2019-05-10T11:19:15.374Z,16.57
2019-05-10T11:21:42.506Z,13.50
2019-05-10T11:24:17.911Z,18.00
2019-05-10T11:26:44.928Z,13.90
2019-05-10T11:29:25.418Z,12.65
2019-05-10T11:31:48.738Z,13.90
2019-05-10T11:34:17.383Z,13.45
2019-05-10T11:36:48.342Z,12.47
2019-05-10T11:39:26.218Z,15.23
2019-05-10T11:41:52.795Z,11.00
2019-05-10T11:44:22.100Z,13.30
2019-05-10T11:46:52.430Z,18.17
2019-05-10T11:49:22.278Z,12.65
2019-05-10T11:51:54.722Z,10.65
2019-05-10T11:54:23.451Z,11.53
2019-05-10T11:56:58.574Z,11.73
2019-05-10T11:59:33.760Z,12.18
2019-05-10T12:02:08.915Z,8.08
2019-05-10T12:04:39.279Z,8.43
2019-05-10T12:07:09.803Z,14.53
2019-05-10T12:09:37.501Z,17.48
2019-05-10T12:12:07.917Z,5.25
2019-05-10T12:14:37.674Z,7.45
2019-05-10T12:17:07.471Z,7.25
2019-05-10T12:19:47.694Z,5.17
2019-05-10T12:22:08.578Z,3.70
2019-05-10T12:26:05.677Z,3.42
2019-05-10T12:27:22.014Z,4.52
2019-05-10T12:29:41.108Z,4.37
2019-05-10T12:32:10.846Z,8.23
2019-05-10T12:34:45.974Z,9.08
2019-05-10T12:37:13.123Z,8.65
2019-05-10T12:39:42.883Z,5.78
2019-05-10T12:42:14.301Z,5.90
2019-05-10T12:44:47.933Z,8.33
2019-05-10T12:47:15.733Z,4.80
2019-05-10T12:49:45.474Z,5.17
2019-05-10T12:52:16.249Z,7.33
2019-05-10T12:54:46.018Z,4.40
2019-05-10T12:57:15.721Z,3.60
2019-05-10T12:59:45.414Z,5.92
2019-05-10T13:02:15.129Z,8.03
2019-05-10T13:04:47.130Z,5.85
2019-05-10T13:07:16.278Z,6.62
2019-05-10T13:09:49.618Z,4.83
2019-05-10T13:12:17.418Z,4.20
2019-05-10T13:14:52.403Z,6.70
2019-05-10T13:17:18.523Z,7.30
2019-05-10T13:19:52.736Z,6.37
2019-05-10T13:22:19.723Z,8.85
2019-05-10T13:24:49.458Z,8.15
2019-05-10T13:27:19.279Z,5.83
2019-05-10T13:29:53.284Z,4.03
2019-05-10T13:32:22.313Z,3.67
2019-05-10T13:34:52.301Z,4.78
2019-05-10T13:37:25.331Z,5.40
2019-05-10T13:39:58.502Z,6.17
2019-05-10T13:42:26.943Z,5.45
2019-05-10T13:44:56.585Z,6.47
2019-05-10T13:47:26.298Z,3.85
2019-05-10T13:49:56.011Z,6.53
2019-05-10T13:52:29.885Z,4.47
2019-05-10T13:54:57.982Z,3.37
2019-05-10T13:57:27.693Z,7.50
2019-05-10T13:59:57.576Z,4.15
2019-05-10T14:02:32.581Z,5.60
2019-05-10T14:04:59.722Z,7.35
2019-05-10T14:07:29.444Z,2.77
2019-05-10T14:09:59.108Z,7.58
2019-05-10T14:12:28.931Z,4.55
2019-05-10T14:15:02.966Z,4.90
2019-05-10T14:17:30.069Z,4.00
2019-05-10T14:19:59.828Z,4.60
2019-05-10T14:22:29.678Z,5.60
2019-05-10T14:24:59.366Z,6.95
2019-05-10T14:27:29.862Z,3.33
2019-05-10T14:30:00.525Z,23.45
2019-05-10T14:32:30.343Z,54.93
2019-05-10T14:34:59.957Z,7.95
2019-05-10T14:37:29.636Z,5.15
2019-05-10T14:39:59.468Z,4.35
2019-05-10T14:42:31.522Z,3.25
2019-05-10T14:45:00.591Z,8.48
2019-05-10T14:47:30.401Z,4.87
2019-05-10T14:50:00.074Z,5.83
2019-05-10T14:52:30.800Z,4.85
2019-05-10T14:55:00.496Z,5.70
2019-05-10T14:57:30.161Z,3.42
2019-05-10T14:59:59.824Z,5.35
2019-05-10T15:02:29.537Z,5.80
2019-05-10T15:05:01.354Z,7.47
2019-05-10T15:07:30.530Z,5.50
2019-05-10T15:10:02.348Z,3.15
2019-05-10T15:12:31.673Z,5.08
2019-05-10T15:15:01.412Z,8.85
2019-05-10T15:17:31.194Z,4.60
2019-05-10T15:20:01.279Z,5.80
2019-05-10T15:22:31.134Z,4.40
2019-05-10T15:25:00.891Z,4.25
2019-05-10T15:27:31.608Z,5.55
2019-05-10T15:30:05.391Z,5.00
2019-05-10T15:32:33.144Z,9.75
2019-05-10T15:35:07.077Z,5.45
2019-05-10T15:37:34.301Z,5.00
2019-05-10T15:40:07.730Z,7.55
2019-05-10T15:42:38.432Z,6.30
2019-05-10T15:45:12.386Z,5.97
2019-05-10T15:47:50.882Z,10.18
2019-05-10T15:50:12.269Z,7.22
2019-05-10T15:52:46.274Z,7.20
2019-05-10T15:55:16.427Z,6.97
2019-05-10T15:57:44.974Z,3.87
2019-05-10T16:00:15.399Z,8.88
2019-05-10T16:02:45.399Z,6.35
2019-05-10T16:05:23.923Z,4.95
2019-05-10T16:07:51.582Z,10.10
2019-05-10T16:10:18.547Z,6.62
2019-05-10T16:12:48.520Z,5.92
2019-05-10T16:15:20.081Z,9.63
2019-05-10T16:17:53.676Z,5.37
2019-05-10T16:20:20.982Z,7.33
2019-05-10T16:22:50.790Z,8.45
2019-05-10T16:25:20.787Z,4.67
2019-05-10T16:27:50.593Z,6.70
2019-05-10T16:30:20.464Z,8.28
2019-05-10T16:32:50.229Z,5.72
2019-05-10T16:35:22.032Z,7.05
2019-05-10T16:37:51.541Z,7.12
2019-05-10T16:40:21.309Z,8.33
2019-05-10T16:42:51.020Z,8.75
2019-05-10T16:45:20.846Z,6.72
2019-05-10T16:47:50.536Z,10.48
2019-05-10T16:50:20.589Z,6.45
2019-05-10T16:52:50.520Z,10.35
2019-05-10T16:55:20.336Z,12.23
2019-05-10T16:57:50.088Z,8.45
2019-05-10T17:00:20.405Z,9.40
2019-05-10T17:02:50.237Z,10.60
2019-05-10T17:05:20.075Z,12.23
2019-05-10T17:07:53.700Z,9.60
2019-05-10T17:10:21.215Z,6.97
2019-05-10T17:12:50.950Z,6.47
2019-05-10T17:15:20.836Z,12.23
2019-05-10T17:17:50.648Z,9.03
2019-05-10T17:20:20.994Z,9.43
2019-05-10T17:22:50.858Z,10.15
2019-05-10T17:25:22.576Z,9.70
2019-05-10T17:27:57.753Z,10.85
2019-05-10T17:30:27.908Z,6.92
2019-05-10T17:32:57.662Z,8.55
2019-05-10T17:35:26.835Z,9.30
2019-05-10T17:37:56.813Z,14.18
2019-05-10T17:40:26.710Z,7.35
2019-05-10T17:42:56.486Z,10.93
2019-05-10T17:45:26.485Z,11.70
2019-05-10T17:47:56.231Z,10.08
2019-05-10T17:50:26.052Z,10.65
2019-05-10T17:52:55.736Z,11.50
2019-05-10T17:55:25.702Z,9.68
2019-05-10T17:57:56.632Z,7.62
2019-05-10T18:00:26.581Z,10.30
2019-05-10T18:02:56.381Z,8.28
2019-05-10T18:05:26.156Z,9.03
2019-05-10T18:07:56.083Z,11.50
2019-05-10T18:10:25.823Z,10.75
2019-05-10T18:12:57.309Z,10.30
2019-05-10T18:15:27.691Z,9.00
2019-05-10T18:18:02.545Z,11.08
2019-05-10T18:20:41.045Z,10.72
2019-05-10T18:23:01.265Z,17.07
2019-05-10T18:25:31.029Z,14.00
2019-05-10T18:28:00.704Z,10.93
2019-05-10T18:30:30.590Z,7.37
2019-05-10T18:33:01.386Z,11.48
2019-05-10T18:35:31.257Z,14.28
2019-05-10T18:38:01.132Z,12.60
2019-05-10T18:40:33.450Z,7.37
2019-05-10T18:43:03.881Z,11.73
2019-05-10T18:45:33.788Z,9.60
2019-05-10T18:48:03.635Z,13.78
2019-05-10T18:50:33.278Z,10.70
2019-05-10T18:53:03.120Z,12.82
2019-05-10T18:55:32.986Z,14.07
2019-05-10T18:58:02.962Z,6.13
2019-05-10T19:00:32.781Z,6.25
2019-05-10T19:03:02.731Z,10.93
2019-05-10T19:05:33.212Z,9.48
2019-05-10T19:08:05.613Z,9.10
2019-05-10T19:10:34.473Z,10.70
2019-05-10T19:13:06.323Z,8.10
2019-05-10T19:15:36.323Z,9.90
2019-05-10T19:18:06.129Z,15.30
2019-05-10T19:20:35.858Z,9.18
2019-05-10T19:23:05.732Z,11.15
2019-05-10T19:25:37.614Z,9.28
2019-05-10T19:28:06.927Z,8.03
2019-05-10T19:30:36.816Z,9.55
2019-05-10T19:33:06.643Z,9.65
2019-05-10T19:35:37.933Z,14.63
2019-05-10T19:38:07.689Z,9.07
2019-05-10T19:40:37.767Z,10.10
2019-05-10T19:43:08.553Z,9.18
2019-05-10T19:45:38.300Z,9.63
2019-05-10T19:48:07.997Z,10.45
2019-05-10T19:50:37.752Z,13.20
2019-05-10T19:53:07.454Z,11.48
2019-05-10T19:55:37.158Z,13.10
2019-05-10T19:58:07.010Z,9.07
2019-05-10T20:00:36.985Z,10.03
2019-05-10T20:03:06.909Z,13.17
2019-05-10T20:05:36.663Z,12.17
2019-05-10T20:08:06.536Z,7.10
2019-05-10T20:10:36.215Z,8.50
2019-05-10T20:13:05.899Z,11.60
2019-05-10T20:15:35.596Z,12.10
2019-05-10T20:18:05.618Z,12.27
2019-05-10T20:20:35.544Z,7.27
2019-05-10T20:23:05.235Z,10.93
2019-05-10T20:25:34.910Z,10.13
2019-05-10T20:28:06.537Z,11.47
2019-05-10T20:30:36.261Z,14.73
2019-05-10T20:33:05.933Z,9.57
2019-05-10T20:35:35.741Z,7.70
2019-05-10T20:38:05.714Z,11.87
2019-05-10T20:40:37.225Z,7.63
2019-05-10T20:43:07.158Z,7.67
2019-05-10T20:45:36.936Z,10.37
2019-05-10T20:48:06.640Z,11.67
2019-05-10T20:50:36.369Z,9.63
2019-05-10T20:53:06.138Z,4.67
2019-05-10T20:55:36.826Z,8.27
2019-05-10T20:58:06.541Z,11.07
2019-05-10T21:00:36.531Z,10.30
2019-05-10T21:03:06.229Z,8.67
2019-05-10T21:05:36.910Z,11.83
2019-05-10T21:08:16.621Z,6.67
2019-05-10T21:10:37.924Z,8.60
2019-05-10T21:13:07.705Z,7.43
2019-05-10T21:15:37.602Z,8.37
2019-05-10T21:18:07.253Z,12.20
2019-05-10T21:20:37.070Z,9.43
2019-05-10T21:23:06.796Z,12.23
2019-05-10T21:25:36.697Z,7.97
2019-05-10T21:28:06.402Z,8.73
2019-05-10T21:30:36.143Z,11.27
2019-05-10T21:33:05.913Z,7.00
2019-05-10T21:35:35.632Z,10.23
2019-05-10T21:38:05.369Z,14.83
2019-05-10T21:40:35.074Z,10.87
2019-05-10T21:43:04.870Z,15.30
2019-05-10T21:45:34.614Z,11.90
2019-05-10T21:48:04.950Z,10.07
2019-05-10T21:50:34.605Z,9.57
2019-05-10T21:53:04.889Z,7.43
2019-05-10T21:55:34.575Z,11.97
2019-05-10T21:58:04.922Z,8.77
2019-05-10T22:00:38.030Z,13.47
2019-05-10T22:03:09.331Z,9.43
2019-05-10T22:05:39.160Z,5.33
2019-05-10T22:08:08.887Z,9.80
2019-05-10T22:10:38.542Z,10.70
2019-05-10T22:13:08.236Z,6.87
2019-05-10T22:15:37.937Z,8.77
2019-05-10T22:18:07.726Z,7.23
2019-05-10T22:20:37.365Z,8.03
2019-05-10T22:23:07.079Z,5.23
2019-05-10T22:25:36.866Z,14.60
2019-05-10T22:28:06.605Z,7.33
2019-05-10T22:30:36.397Z,9.40
2019-05-10T22:33:06.140Z,12.67
2019-05-10T22:35:35.941Z,6.93
2019-05-10T22:38:05.728Z,5.77
2019-05-10T22:40:35.642Z,9.27
2019-05-10T22:43:05.473Z,8.40
2019-05-10T22:45:35.193Z,11.97
2019-05-10T22:48:04.963Z,8.97
2019-05-10T22:50:34.609Z,9.90
2019-05-10T22:53:04.924Z,8.37
2019-05-10T22:55:34.532Z,10.27
2019-05-10T22:58:04.970Z,5.30
2019-05-10T23:00:34.728Z,4.70
2019-05-10T23:03:04.885Z,9.17
2019-05-10T23:05:34.592Z,7.07
2019-05-10T23:08:04.935Z,7.60
2019-05-10T23:10:34.542Z,10.07
2019-05-10T23:13:05.019Z,8.17
2019-05-10T23:15:34.737Z,7.27
2019-05-10T23:18:04.914Z,5.80
2019-05-10T23:20:34.612Z,7.37
2019-05-10T23:23:05.281Z,4.97
2019-05-10T23:25:35.038Z,6.10
2019-05-10T23:28:05.218Z,5.87
2019-05-10T23:30:34.883Z,8.67
2019-05-10T23:33:04.981Z,9.03
2019-05-10T23:35:34.668Z,6.87
2019-05-10T23:38:04.905Z,9.67
2019-05-10T23:40:35.781Z,6.03
2019-05-10T23:43:05.925Z,9.47
2019-05-10T23:45:35.706Z,9.63
2019-05-10T23:48:06.410Z,9.07
2019-05-10T23:50:36.039Z,5.27
2019-05-10T23:53:05.749Z,6.80
2019-05-10T23:55:35.817Z,7.77
2019-05-10T23:58:06.511Z,8.53
